createdAt,value
2022-10-20T00:01:50.479Z,95844.31
2022-10-20T00:04:17.064Z,95836.00
2022-10-20T00:06:43.651Z,95830.84
2022-10-20T00:09:10.310Z,95826.56
2022-10-20T00:11:36.778Z,95824.63
2022-10-20T00:14:03.767Z,95823.81
2022-10-20T00:16:31.964Z,95826.88
2022-10-20T00:18:58.904Z,95830.28
2022-10-20T00:21:27.118Z,95827.38
2022-10-20T00:23:53.923Z,95821.25
2022-10-20T00:26:23.699Z,95827.38
2022-10-20T00:28:51.404Z,95823.06
2022-10-20T00:31:20.157Z,95836.53
2022-10-20T00:33:47.656Z,95836.06
2022-10-20T00:36:17.392Z,95834.47
2022-10-20T00:38:44.852Z,95832.53
2022-10-20T00:41:16.553Z,95834.78
2022-10-20T00:43:50.608Z,95837.50
2022-10-20T00:46:21.488Z,95835.44
2022-10-20T00:48:52.351Z,95844.09
2022-10-20T00:51:22.477Z,95830.13
2022-10-20T00:53:52.214Z,95835.28
2022-10-20T00:56:19.132Z,95827.09
2022-10-20T00:58:46.182Z,95827.88
2022-10-20T01:01:13.549Z,95822.75
2022-10-20T01:03:45.517Z,95812.94
2022-10-20T01:06:14.779Z,95814.88
2022-10-20T01:08:41.463Z,95807.50
2022-10-20T01:11:19.942Z,95800.09
2022-10-20T01:13:52.458Z,95807.81
2022-10-20T01:16:32.664Z,95805.88
2022-10-20T01:19:13.944Z,95796.41
2022-10-20T01:22:12.520Z,95795.94
2022-10-20T01:24:48.143Z,95786.31
2022-10-20T01:27:34.803Z,95786.16
2022-10-20T01:30:04.006Z,95790.97
2022-10-20T01:32:38.408Z,95776.84
2022-10-20T01:35:21.669Z,95780.25
2022-10-20T01:38:12.029Z,95782.84
2022-10-20T01:40:52.398Z,95778.50
2022-10-20T01:43:21.687Z,95776.41
2022-10-20T01:45:50.975Z,95776.09
2022-10-20T01:48:22.698Z,95783.81
2022-10-20T01:50:50.742Z,95784.59
2022-10-20T01:53:17.389Z,95784.13
2022-10-20T01:55:44.091Z,95780.28
2022-10-20T01:58:28.868Z,95770.38
2022-10-20T02:01:21.850Z,95772.28
2022-10-20T02:03:56.604Z,95777.72
2022-10-20T02:06:35.129Z,95766.81
2022-10-20T02:09:06.947Z,95762.00
2022-10-20T02:11:55.003Z,95760.09
2022-10-20T02:14:22.743Z,95755.75
2022-10-20T02:16:59.111Z,95765.38
2022-10-20T02:19:31.090Z,95761.88
2022-10-20T02:21:58.124Z,95757.22
2022-10-20T02:24:29.470Z,95752.91
2022-10-20T02:26:59.604Z,95751.28
2022-10-20T02:29:30.794Z,95753.22
2022-10-20T02:31:58.167Z,95756.28
2022-10-20T02:34:27.807Z,95758.53
2022-10-20T02:36:59.015Z,95759.47
2022-10-20T02:39:26.637Z,95770.38
2022-10-20T02:41:53.186Z,95761.72
2022-10-20T02:44:19.645Z,95746.63
2022-10-20T02:46:46.125Z,95736.88
2022-10-20T02:49:12.600Z,95733.00
2022-10-20T02:51:39.107Z,95731.41
2022-10-20T02:54:05.635Z,95716.97
2022-10-20T02:56:32.155Z,95722.09
2022-10-20T02:58:58.714Z,95715.50
2022-10-20T03:01:25.459Z,95710.84
2022-10-20T03:03:52.059Z,95708.44
2022-10-20T03:06:18.623Z,95709.28
2022-10-20T03:08:45.243Z,95711.03
2022-10-20T03:11:11.719Z,95710.25
2022-10-20T03:13:38.249Z,95710.13
2022-10-20T03:16:04.871Z,95708.03
2022-10-20T03:18:31.459Z,95710.28
2022-10-20T03:20:58.037Z,95719.59
2022-10-20T03:23:24.623Z,95714.47
2022-10-20T03:25:51.189Z,95717.53
2022-10-20T03:28:17.945Z,95713.50
2022-10-20T03:30:44.551Z,95709.53
2022-10-20T03:33:11.004Z,95723.50
2022-10-20T03:35:37.499Z,95723.00
2022-10-20T03:38:04.044Z,95720.91
2022-10-20T03:40:30.623Z,95717.41
2022-10-20T03:42:57.231Z,95720.13
2022-10-20T03:45:23.723Z,95721.56
2022-10-20T03:47:50.310Z,95733.28
2022-10-20T03:50:16.831Z,95727.03
2022-10-20T03:52:43.352Z,95724.63
2022-10-20T03:55:09.950Z,95730.06
2022-10-20T03:57:36.804Z,95732.78
2022-10-20T04:00:03.849Z,95725.44
2022-10-20T04:02:43.777Z,95721.09
2022-10-20T04:05:14.730Z,95715.66
2022-10-20T04:07:41.638Z,95717.59
2022-10-20T04:10:09.172Z,95710.53
2022-10-20T04:12:36.029Z,95713.56
2022-10-20T04:15:04.557Z,95715.50
2022-10-20T04:17:31.192Z,95712.66
2022-10-20T04:19:57.759Z,95705.59
2022-10-20T04:22:24.346Z,95707.03
2022-10-20T04:24:50.858Z,95710.06
2022-10-20T04:27:17.620Z,95705.28
2022-10-20T04:29:44.166Z,95705.28
2022-10-20T04:32:10.835Z,95706.41
2022-10-20T04:34:37.322Z,95711.03
2022-10-20T04:37:04.075Z,95706.75
2022-10-20T04:39:30.745Z,95714.44
2022-10-20T04:41:57.222Z,95711.72
2022-10-20T04:44:23.696Z,95710.13
2022-10-20T04:46:50.332Z,95706.59
2022-10-20T04:49:16.921Z,95707.38
2022-10-20T04:51:43.368Z,95706.28
2022-10-20T04:54:09.906Z,95694.56
2022-10-20T04:56:36.434Z,95690.72
2022-10-20T04:59:04.051Z,95691.19
2022-10-20T05:01:31.392Z,95691.19
2022-10-20T05:03:58.338Z,95687.66
2022-10-20T05:06:27.167Z,95688.00
2022-10-20T05:08:56.760Z,95687.19
2022-10-20T05:11:25.121Z,95681.75
2022-10-20T05:13:51.827Z,95683.19
2022-10-20T05:16:18.802Z,95678.06
2022-10-20T05:18:46.811Z,95672.47
2022-10-20T05:21:19.703Z,95666.84
2022-10-20T05:23:46.339Z,95678.06
2022-10-20T05:26:16.751Z,95675.66
2022-10-20T05:28:46.076Z,95679.88
2022-10-20T05:31:13.463Z,95681.81
2022-10-20T05:33:43.559Z,95688.81
2022-10-20T05:36:10.882Z,95690.44
2022-10-20T05:38:37.409Z,95698.28
2022-10-20T05:41:12.557Z,95688.97
2022-10-20T05:43:39.386Z,95684.34
2022-10-20T05:46:06.592Z,95684.34
2022-10-20T05:48:33.431Z,95688.19
2022-10-20T05:51:13.770Z,95690.91
2022-10-20T05:53:42.623Z,95686.56
2022-10-20T05:56:12.170Z,95691.56
2022-10-20T05:58:39.150Z,95696.22
2022-10-20T06:01:08.320Z,95700.88
2022-10-20T06:03:35.279Z,95700.38
2022-10-20T06:06:02.987Z,95695.25
2022-10-20T06:08:33.780Z,95693.66
2022-10-20T06:11:04.758Z,95694.31
2022-10-20T06:13:31.805Z,95685.31
2022-10-20T06:16:06.313Z,95675.88
2022-10-20T06:18:33.424Z,95679.72
2022-10-20T06:21:01.917Z,95690.94
2022-10-20T06:23:28.828Z,95683.09
2022-10-20T06:25:55.661Z,95685.03
2022-10-20T06:28:22.197Z,95688.06
2022-10-20T06:30:48.693Z,95674.00
2022-10-20T06:33:15.256Z,95687.94
2022-10-20T06:35:41.923Z,95690.97
2022-10-20T06:38:08.403Z,95692.09
2022-10-20T06:40:34.871Z,95696.72
2022-10-20T06:43:01.480Z,95702.78
2022-10-20T06:45:28.083Z,95698.47
2022-10-20T06:47:54.571Z,95687.56
2022-10-20T06:50:21.449Z,95693.47
2022-10-20T06:52:48.051Z,95689.50
2022-10-20T06:55:14.675Z,95688.69
2022-10-20T06:57:41.211Z,95683.22
2022-10-20T07:00:08.564Z,95682.13
2022-10-20T07:02:38.014Z,95681.81
2022-10-20T07:05:05.237Z,95677.97
2022-10-20T07:07:31.844Z,95679.25
2022-10-20T07:09:58.441Z,95679.75
2022-10-20T07:12:25.048Z,95678.94
2022-10-20T07:14:51.609Z,95678.78
2022-10-20T07:17:18.046Z,95672.66
2022-10-20T07:19:44.609Z,95671.69
2022-10-20T07:22:11.060Z,95669.16
2022-10-20T07:24:37.503Z,95671.22
2022-10-20T07:27:04.072Z,95670.91
2022-10-20T07:29:30.667Z,95664.78
2022-10-20T07:31:59.920Z,95672.31
2022-10-20T07:34:28.283Z,95670.53
2022-10-20T07:36:56.581Z,95670.69
2022-10-20T07:39:23.558Z,95661.53
2022-10-20T07:41:50.118Z,95666.81
2022-10-20T07:44:17.387Z,95670.34
2022-10-20T07:46:44.391Z,95666.16
2022-10-20T07:51:57.722Z,95661.34
2022-10-20T07:54:24.274Z,95669.31
2022-10-20T07:56:51.400Z,95652.00
2022-10-20T07:59:18.921Z,95657.56
2022-10-20T08:01:46.523Z,95659.00
2022-10-20T08:04:13.156Z,95650.50
2022-10-20T08:06:39.764Z,95663.13
2022-10-20T08:09:06.967Z,95658.31
2022-10-20T08:11:33.791Z,95661.16
2022-10-20T08:14:00.350Z,95654.72
2022-10-20T08:16:29.871Z,95653.75
2022-10-20T08:19:10.110Z,95657.72
2022-10-20T08:21:36.651Z,95652.91
2022-10-20T08:24:03.246Z,95648.69
2022-10-20T08:26:29.897Z,95651.72
2022-10-20T08:28:56.498Z,95652.31
2022-10-20T08:31:23.436Z,95647.81
2022-10-20T08:33:52.915Z,95640.69
2022-10-20T08:36:20.588Z,95646.78
2022-10-20T08:38:47.868Z,95645.75
2022-10-20T08:41:34.539Z,95635.44
2022-10-20T08:44:03.998Z,95634.91
2022-10-20T08:46:36.976Z,95633.56
2022-10-20T08:49:07.725Z,95636.41
2022-10-20T08:51:36.781Z,95633.34
2022-10-20T08:54:04.694Z,95642.03
2022-10-20T08:56:34.644Z,95646.34
2022-10-20T08:59:02.201Z,95643.28
2022-10-20T09:01:37.838Z,95642.59
2022-10-20T09:04:19.683Z,95635.81
2022-10-20T09:06:50.591Z,95636.84
2022-10-20T09:09:21.581Z,95631.97
2022-10-20T09:11:48.873Z,95632.22
2022-10-20T09:14:15.442Z,95628.38
2022-10-20T09:16:59.312Z,95635.09
2022-10-20T09:19:27.596Z,95630.78
2022-10-20T09:21:58.478Z,95621.19
2022-10-20T09:24:28.268Z,95615.38
2022-10-20T09:26:59.186Z,95609.44
2022-10-20T09:29:37.844Z,95610.59
2022-10-20T09:32:45.002Z,95625.25
2022-10-20T09:35:14.905Z,95617.19
2022-10-20T09:37:43.469Z,95619.25
2022-10-20T09:40:15.181Z,95622.44
2022-10-20T09:42:50.691Z,95617.56
2022-10-20T09:45:23.970Z,95617.34
2022-10-20T09:47:54.402Z,95616.78
2022-10-20T09:50:27.398Z,95611.56
2022-10-20T09:52:54.927Z,95616.13
2022-10-20T09:55:31.783Z,95615.00
2022-10-20T09:58:00.486Z,95604.00
2022-10-20T10:00:37.557Z,95597.59
2022-10-20T10:03:17.262Z,95593.50
2022-10-20T10:05:43.836Z,95597.38
2022-10-20T10:08:15.295Z,95606.72
2022-10-20T10:10:44.622Z,95610.13
2022-10-20T10:13:26.373Z,95613.91
2022-10-20T10:16:08.170Z,95593.81
2022-10-20T10:18:36.282Z,95599.28
2022-10-20T10:21:05.394Z,95591.84
2022-10-20T10:23:35.054Z,95596.34
2022-10-20T10:26:03.372Z,95596.78
2022-10-20T10:28:38.971Z,95587.66
2022-10-20T10:31:19.543Z,95575.84
2022-10-20T10:33:46.835Z,95574.19
2022-10-20T10:36:29.650Z,95577.91
2022-10-20T10:38:56.906Z,95576.25
2022-10-20T10:41:34.740Z,95571.84
2022-10-20T10:44:26.163Z,95560.81
2022-10-20T10:47:21.825Z,95560.38
2022-10-20T10:49:55.533Z,95559.56
2022-10-20T10:52:31.518Z,95568.94
2022-10-20T10:55:48.388Z,95563.78
2022-10-20T10:58:31.327Z,95568.34
2022-10-20T11:01:19.843Z,95559.22
2022-10-20T11:04:10.491Z,95557.03
2022-10-20T11:06:44.206Z,95560.38
2022-10-20T11:09:38.571Z,95551.84
2022-10-20T11:12:42.453Z,95555.19
2022-10-20T11:15:39.241Z,95550.28
2022-10-20T11:18:27.579Z,95539.88
2022-10-20T11:21:29.184Z,95530.19
2022-10-20T11:24:16.941Z,95526.00
2022-10-20T11:26:44.712Z,95525.91
2022-10-20T11:29:30.006Z,95515.56
2022-10-20T11:32:14.501Z,95507.38
2022-10-20T11:34:52.669Z,95519.94
2022-10-20T11:37:26.005Z,95507.81
2022-10-20T11:40:09.256Z,95507.03
2022-10-20T11:42:46.032Z,95498.34
2022-10-20T11:45:29.572Z,95491.69
2022-10-20T11:48:04.472Z,95496.16
2022-10-20T11:50:32.086Z,95499.41
2022-10-20T11:53:21.771Z,95494.31
2022-10-20T11:55:57.030Z,95493.28
2022-10-20T11:58:49.652Z,95501.59
2022-10-20T12:01:39.308Z,95488.31
2022-10-20T12:04:08.500Z,95492.66
2022-10-20T12:06:47.385Z,95488.69
2022-10-20T12:09:26.675Z,95489.09
2022-10-20T12:12:05.086Z,95489.09
2022-10-20T12:15:01.673Z,95481.31
2022-10-20T12:17:34.503Z,95487.63
2022-10-20T12:20:22.447Z,95479.38
2022-10-20T12:22:54.987Z,95479.09
2022-10-20T12:25:24.561Z,95464.16
2022-10-20T12:28:22.087Z,95470.09
2022-10-20T12:30:59.095Z,95466.59
2022-10-20T12:33:36.247Z,95475.75
2022-10-20T12:36:17.825Z,95467.50
2022-10-20T12:39:07.449Z,95463.25
2022-10-20T12:41:39.449Z,95460.22
2022-10-20T12:44:14.886Z,95459.97
2022-10-20T12:46:57.051Z,95456.16
2022-10-20T12:49:36.044Z,95455.44
2022-10-20T12:52:04.696Z,95449.31
2022-10-20T12:54:39.364Z,95443.09
2022-10-20T12:57:36.834Z,95451.88
2022-10-20T13:00:20.203Z,95460.63
2022-10-20T13:02:57.094Z,95461.44
2022-10-20T13:05:38.355Z,95459.06
2022-10-20T13:08:19.812Z,95464.59
2022-10-20T13:10:46.997Z,95459.03
2022-10-20T13:13:19.638Z,95461.78
2022-10-20T13:15:46.041Z,95464.19
2022-10-20T13:18:12.472Z,95457.81
2022-10-20T13:20:50.918Z,95453.50
2022-10-20T13:23:30.885Z,95455.78
2022-10-20T13:26:03.144Z,95452.63
2022-10-20T13:28:32.142Z,95452.63
2022-10-20T13:31:12.559Z,95458.91
2022-10-20T13:34:04.622Z,95450.28
2022-10-20T13:36:37.621Z,95443.16
2022-10-20T13:39:23.165Z,95440.47
2022-10-20T13:41:55.985Z,95437.75
2022-10-20T13:44:30.525Z,95439.38
2022-10-20T13:47:25.191Z,95444.56
2022-10-20T13:50:05.287Z,95441.06
2022-10-20T13:52:37.953Z,95436.34
2022-10-20T13:55:07.438Z,95433.53
2022-10-20T13:57:35.903Z,95435.06
2022-10-20T14:00:16.734Z,95446.88
2022-10-20T14:02:53.100Z,95455.06
2022-10-20T14:05:21.895Z,95464.13
2022-10-20T14:07:48.839Z,95464.50
2022-10-20T14:10:43.984Z,95462.13
2022-10-20T14:13:15.724Z,95460.13
2022-10-20T14:15:48.465Z,95472.28
2022-10-20T14:18:27.038Z,95475.41
2022-10-20T14:20:59.117Z,95475.78
2022-10-20T14:23:28.350Z,95485.25
2022-10-20T14:25:56.807Z,95478.53
2022-10-20T14:28:25.241Z,95468.28
2022-10-20T14:30:52.407Z,95479.28
2022-10-20T14:33:19.233Z,95483.59
2022-10-20T14:35:53.063Z,95482.78
2022-10-20T14:38:24.088Z,95484.75
2022-10-20T14:40:53.500Z,95488.66
2022-10-20T14:43:45.536Z,95490.22
2022-10-20T14:46:22.569Z,95499.69
2022-10-20T14:48:50.716Z,95503.63
2022-10-20T14:51:32.543Z,95495.28
2022-10-20T14:54:20.147Z,95490.97
2022-10-20T14:56:56.135Z,95490.53
2022-10-20T14:59:28.328Z,95488.91
2022-10-20T15:02:05.187Z,95492.34
2022-10-20T15:04:33.664Z,95486.00
2022-10-20T15:07:06.634Z,95484.75
2022-10-20T15:09:39.570Z,95482.69
2022-10-20T15:12:32.096Z,95471.13
2022-10-20T15:15:06.407Z,95461.63
2022-10-20T15:17:39.027Z,95458.34
2022-10-20T15:20:36.854Z,95449.97
2022-10-20T15:23:10.403Z,95456.47
2022-10-20T15:25:53.212Z,95445.38
2022-10-20T15:28:46.253Z,95438.25
2022-10-20T15:31:12.664Z,95450.72
2022-10-20T15:33:39.938Z,95454.13
2022-10-20T15:36:14.319Z,95443.81
2022-10-20T15:38:41.792Z,95450.06
2022-10-20T15:41:15.129Z,95443.28
2022-10-20T15:43:42.388Z,95453.03
2022-10-20T15:46:11.271Z,95440.75
2022-10-20T15:48:38.084Z,95426.22
2022-10-20T15:51:05.215Z,95425.66
2022-10-20T15:53:31.701Z,95432.16
2022-10-20T15:55:58.167Z,95426.78
2022-10-20T15:58:24.705Z,95427.38
2022-10-20T16:00:51.194Z,95429.91
2022-10-20T16:03:18.861Z,95425.44
2022-10-20T16:05:46.970Z,95428.75
2022-10-20T16:10:59.970Z,95414.34
2022-10-20T16:13:26.529Z,95417.38
2022-10-20T16:15:53.079Z,95401.88
2022-10-20T16:18:19.621Z,95403.78
2022-10-20T16:20:46.153Z,95398.13
2022-10-20T16:23:12.604Z,95402.28
2022-10-20T16:25:40.204Z,95396.28
2022-10-20T16:28:07.213Z,95389.13
2022-10-20T16:30:33.737Z,95383.94
2022-10-20T16:33:00.238Z,95378.75
2022-10-20T16:35:26.842Z,95386.44
2022-10-20T16:37:53.322Z,95383.19
2022-10-20T16:40:19.879Z,95383.88
2022-10-20T16:42:46.352Z,95381.44
2022-10-20T16:45:12.928Z,95362.16
2022-10-20T16:47:39.914Z,95364.03
2022-10-20T16:50:06.906Z,95372.53
2022-10-20T16:52:33.471Z,95366.97
2022-10-20T16:55:00.141Z,95375.13
2022-10-20T16:57:26.655Z,95367.16
2022-10-20T16:59:53.193Z,95370.25
2022-10-20T17:02:19.828Z,95361.94
2022-10-20T17:04:49.995Z,95364.59
2022-10-20T17:07:17.515Z,95375.13
2022-10-20T17:09:44.040Z,95360.13
2022-10-20T17:12:10.641Z,95354.19
2022-10-20T17:14:39.920Z,95357.66
2022-10-20T17:17:06.786Z,95355.16
2022-10-20T17:19:33.240Z,95361.34
2022-10-20T17:21:59.806Z,95372.53
2022-10-20T17:24:26.513Z,95372.78
2022-10-20T17:26:53.023Z,95378.53
2022-10-20T17:29:22.358Z,95381.50
2022-10-20T17:31:51.745Z,95383.72
2022-10-20T17:34:18.268Z,95375.44
2022-10-20T17:36:44.817Z,95369.06
2022-10-20T17:39:14.662Z,95383.44
2022-10-20T17:41:41.196Z,95379.09
2022-10-20T17:44:07.680Z,95382.53
2022-10-20T17:46:34.304Z,95382.09
2022-10-20T17:49:01.627Z,95389.09
2022-10-20T17:51:31.847Z,95394.91
2022-10-20T17:54:01.135Z,95389.78
2022-10-20T17:56:36.373Z,95388.53
2022-10-20T17:59:05.159Z,95395.13
2022-10-20T18:01:34.224Z,95389.66
2022-10-20T18:04:10.774Z,95389.22
2022-10-20T18:06:38.007Z,95381.03
2022-10-20T18:09:10.365Z,95369.66
2022-10-20T18:11:38.679Z,95370.78
2022-10-20T18:14:05.848Z,95375.81
2022-10-20T18:16:34.752Z,95353.03
2022-10-20T18:19:01.484Z,95356.47
2022-10-20T18:21:29.759Z,95351.69
2022-10-20T18:23:58.677Z,95350.81
2022-10-20T18:26:25.673Z,95337.84
2022-10-20T18:28:52.288Z,95328.72
2022-10-20T18:31:21.538Z,95327.50
2022-10-20T18:34:02.554Z,95322.25
2022-10-20T18:36:33.615Z,95316.72
2022-10-20T18:39:00.540Z,95318.56
2022-10-20T18:41:31.917Z,95324.72
2022-10-20T18:44:02.389Z,95318.34
2022-10-20T18:46:31.003Z,95321.78
2022-10-20T18:48:58.144Z,95310.41
2022-10-20T18:51:24.711Z,95294.69
2022-10-20T18:53:54.000Z,95305.94
2022-10-20T18:56:22.054Z,95310.16
2022-10-20T18:58:54.736Z,95316.31
2022-10-20T19:01:24.879Z,95311.19
2022-10-20T19:03:53.647Z,95302.91
2022-10-20T19:06:22.929Z,95292.31
2022-10-20T19:08:53.281Z,95293.84
2022-10-20T19:11:22.178Z,95299.28
2022-10-20T19:13:49.267Z,95298.81
2022-10-20T19:16:18.606Z,95301.13
2022-10-20T19:18:46.563Z,95305.31
2022-10-20T19:21:13.971Z,95303.75
2022-10-20T19:23:43.417Z,95304.09
2022-10-20T19:26:21.145Z,95316.94
2022-10-20T19:28:58.847Z,95313.78
2022-10-20T19:31:32.042Z,95310.25
2022-10-20T19:34:04.950Z,95317.63
2022-10-20T19:36:31.733Z,95308.66
2022-10-20T19:38:58.340Z,95304.31
2022-10-20T19:41:25.528Z,95311.38
2022-10-20T19:43:52.397Z,95301.16
2022-10-20T19:46:20.436Z,95300.34
2022-10-20T19:48:47.991Z,95291.72
2022-10-20T19:51:16.070Z,95293.97
2022-10-20T19:53:43.026Z,95304.91
2022-10-20T19:56:09.972Z,95303.34
2022-10-20T19:58:39.379Z,95307.53
2022-10-20T20:01:09.477Z,95311.41
2022-10-20T20:03:36.404Z,95307.56
2022-10-20T20:06:04.987Z,95313.25
2022-10-20T20:08:32.051Z,95323.00
2022-10-20T20:10:59.503Z,95319.06
2022-10-20T20:13:26.224Z,95318.97
2022-10-20T20:15:53.296Z,95320.09
2022-10-20T20:18:19.940Z,95320.44
2022-10-20T20:20:48.184Z,95326.66
2022-10-20T20:23:15.791Z,95322.72
2022-10-20T20:25:44.739Z,95321.91
2022-10-20T20:28:11.689Z,95324.19
2022-10-20T20:30:38.380Z,95328.50
2022-10-20T20:33:04.873Z,95323.06
2022-10-20T20:35:31.543Z,95316.78
2022-10-20T20:37:58.565Z,95329.66
2022-10-20T20:40:25.730Z,95328.03
2022-10-20T20:42:52.798Z,95324.53
2022-10-20T20:45:22.419Z,95332.28
2022-10-20T20:47:49.194Z,95337.25
2022-10-20T20:50:15.973Z,95329.44
2022-10-20T20:52:42.668Z,95332.84
2022-10-20T20:55:09.574Z,95329.66
2022-10-20T20:57:36.460Z,95338.53
2022-10-20T21:00:04.432Z,95337.63
2022-10-20T21:02:30.949Z,95356.97
2022-10-20T21:04:57.592Z,95362.63
2022-10-20T21:07:24.135Z,95365.94
2022-10-20T21:09:50.607Z,95380.13
2022-10-20T21:12:17.078Z,95378.75
2022-10-20T21:14:43.575Z,95389.91
2022-10-20T21:17:10.101Z,95402.13
2022-10-20T21:19:36.727Z,95408.94
2022-10-20T21:22:03.402Z,95418.13
2022-10-20T21:24:30.002Z,95434.72
2022-10-20T21:26:57.818Z,95440.72
2022-10-20T21:29:24.605Z,95444.09
2022-10-20T21:31:51.161Z,95439.31
2022-10-20T21:34:17.671Z,95442.72
2022-10-20T21:36:44.256Z,95435.19
2022-10-20T21:39:13.127Z,95447.22
2022-10-20T21:41:39.697Z,95455.75
2022-10-20T21:44:07.396Z,95459.63
2022-10-20T21:46:38.875Z,95456.41
2022-10-20T21:49:07.934Z,95462.69
2022-10-20T21:51:36.599Z,95464.59
2022-10-20T21:54:12.378Z,95473.91
2022-10-20T21:56:40.888Z,95484.47
2022-10-20T21:59:12.265Z,95475.50
2022-10-20T22:01:38.771Z,95466.19
2022-10-20T22:04:05.298Z,95454.94
2022-10-20T22:06:31.832Z,95450.78
2022-10-20T22:08:59.038Z,95448.84
2022-10-20T22:11:28.897Z,95460.53
2022-10-20T22:13:56.111Z,95455.88
2022-10-20T22:16:28.390Z,95455.88
2022-10-20T22:19:00.013Z,95460.19
2022-10-20T22:21:28.097Z,95468.81
2022-10-20T22:23:56.556Z,95473.03
2022-10-20T22:26:26.304Z,95471.09
2022-10-20T22:28:53.328Z,95476.56
2022-10-20T22:31:19.954Z,95483.63
2022-10-20T22:33:46.565Z,95479.72
2022-10-20T22:36:13.032Z,95482.47
2022-10-20T22:38:39.512Z,95486.78
2022-10-20T22:41:06.187Z,95493.03
2022-10-20T22:43:32.828Z,95502.81
2022-10-20T22:45:59.264Z,95488.41
2022-10-20T22:48:26.135Z,95491.91
2022-10-20T22:50:52.898Z,95486.13
2022-10-20T22:53:19.754Z,95479.56
2022-10-20T22:55:47.028Z,95480.00
2022-10-20T22:58:13.572Z,95476.16
2022-10-20T23:00:41.442Z,95495.72
2022-10-20T23:03:08.022Z,95490.72
2022-10-20T23:05:34.703Z,95478.00
2022-10-20T23:08:01.213Z,95471.06
2022-10-20T23:10:28.022Z,95468.50
2022-10-20T23:12:54.566Z,95456.44
2022-10-20T23:15:21.212Z,95453.03
2022-10-20T23:17:47.702Z,95446.91
2022-10-20T23:20:14.341Z,95439.19
2022-10-20T23:22:40.890Z,95442.41
2022-10-20T23:25:07.840Z,95426.84
2022-10-20T23:27:35.578Z,95433.91
2022-10-20T23:30:02.399Z,95432.75
2022-10-20T23:32:28.921Z,95435.13
2022-10-20T23:34:55.442Z,95429.34
2022-10-20T23:37:22.177Z,95425.50
2022-10-20T23:39:48.872Z,95425.16
2022-10-20T23:42:15.415Z,95421.28
2022-10-20T23:44:41.934Z,95415.16
2022-10-20T23:47:08.550Z,95409.72
2022-10-20T23:49:35.102Z,95403.91
2022-10-20T23:52:01.630Z,95399.25
2022-10-20T23:54:28.135Z,95393.44
2022-10-20T23:56:54.605Z,95397.75
2022-10-20T23:59:21.054Z,95402.88
